sensor_id;sensor_type;location;lat;lon;timestamp;pressure;altitude;pressure_sealevel;temperature;humidity
21623;BME280;10973;46.706;12.340;2023-05-20T13:18:03;87441.22;;;14.35;55.67
21623;BME280;10973;46.706;12.340;2023-05-20T13:20:33;87442.69;;;14.40;54.98
21623;BME280;10973;46.706;12.340;2023-05-20T13:23:01;87455.91;;;14.43;54.98
21623;BME280;10973;46.706;12.340;2023-05-20T13:25:29;87447.25;;;14.36;55.37
21623;BME280;10973;46.706;12.340;2023-05-20T13:27:56;87452.91;;;14.41;55.29
21623;BME280;10973;46.706;12.340;2023-05-20T13:30:24;87452.53;;;14.39;55.30
21623;BME280;10973;46.706;12.340;2023-05-20T13:32:51;87449.16;;;14.35;55.29
21623;BME280;10973;46.706;12.340;2023-05-20T13:35:20;87451.00;;;14.38;55.35
21623;BME280;10973;46.706;12.340;2023-05-20T13:37:47;87431.38;;;14.32;55.90
21623;BME280;10973;46.706;12.340;2023-05-20T13:40:15;87436.31;;;14.30;56.32
21623;BME280;10973;46.706;12.340;2023-05-20T13:42:43;87431.38;;;14.32;56.54
21623;BME280;10973;46.706;12.340;2023-05-20T13:45:10;87431.34;;;14.36;56.27
21623;BME280;10973;46.706;12.340;2023-05-20T13:47:38;87432.09;;;14.36;56.67
21623;BME280;10973;46.706;12.340;2023-05-20T13:50:06;87435.47;;;14.40;56.82
21623;BME280;10973;46.706;12.340;2023-05-20T13:52:34;87433.50;;;14.51;56.26
21623;BME280;10973;46.706;12.340;2023-05-20T13:55:02;87433.47;;;14.58;56.06
21623;BME280;10973;46.706;12.340;2023-05-20T13:57:29;87430.38;;;14.63;55.05
21623;BME280;10973;46.706;12.340;2023-05-20T13:59:57;87432.25;;;14.66;54.15
21623;BME280;10973;46.706;12.340;2023-05-20T14:02:24;87429.53;;;14.70;53.21
21623;BME280;10973;46.706;12.340;2023-05-20T14:04:52;87426.50;;;14.71;52.54
21623;BME280;10973;46.706;12.340;2023-05-20T14:07:20;87428.38;;;14.74;52.52
21623;BME280;10973;46.706;12.340;2023-05-20T14:09:47;87431.41;;;14.73;52.92
21623;BME280;10973;46.706;12.340;2023-05-20T14:12:14;87432.19;;;14.70;52.91
21623;BME280;10973;46.706;12.340;2023-05-20T14:14:42;87429.59;;;14.66;53.04
21623;BME280;10973;46.706;12.340;2023-05-20T14:17:15;87430.72;;;14.69;53.00
21623;BME280;10973;46.706;12.340;2023-05-20T14:19:42;87435.25;;;14.68;53.60
21623;BME280;10973;46.706;12.340;2023-05-20T14:22:09;87429.19;;;14.68;54.35
21623;BME280;10973;46.706;12.340;2023-05-20T14:24:37;87424.31;;;14.63;54.66
21623;BME280;10973;46.706;12.340;2023-05-20T14:27:05;87428.81;;;14.66;54.46
21623;BME280;10973;46.706;12.340;2023-05-20T14:29:32;87424.31;;;14.63;54.28
21623;BME280;10973;46.706;12.340;2023-05-20T14:31:59;87429.22;;;14.64;54.42
21623;BME280;10973;46.706;12.340;2023-05-20T14:34:27;87424.69;;;14.65;55.32
21623;BME280;10973;46.706;12.340;2023-05-20T14:36:54;87418.63;;;14.61;55.99
21623;BME280;10973;46.706;12.340;2023-05-20T14:39:22;87419.06;;;14.56;56.14
21623;BME280;10973;46.706;12.340;2023-05-20T14:41:49;87422.88;;;14.55;56.17
21623;BME280;10973;46.706;12.340;2023-05-20T14:44:16;87419.81;;;14.56;56.25
21623;BME280;10973;46.706;12.340;2023-05-20T14:46:44;87425.50;;;14.58;56.25
21623;BME280;10973;46.706;12.340;2023-05-20T14:49:11;87421.28;;;14.64;56.24
21623;BME280;10973;46.706;12.340;2023-05-20T14:51:39;87419.75;;;14.67;55.92
21623;BME280;10973;46.706;12.340;2023-05-20T14:54:06;87418.16;;;14.73;55.49
21623;BME280;10973;46.706;12.340;2023-05-20T14:56:34;87414.38;;;14.70;55.29
21623;BME280;10973;46.706;12.340;2023-05-20T14:59:01;87410.56;;;14.75;55.31
21623;BME280;10973;46.706;12.340;2023-05-20T15:01:29;87415.09;;;14.74;54.92
21623;BME280;10973;46.706;12.340;2023-05-20T15:03:57;87414.75;;;14.72;54.59
21623;BME280;10973;46.706;12.340;2023-05-20T15:06:24;87418.56;;;14.71;54.05
21623;BME280;10973;46.706;12.340;2023-05-20T15:08:52;87409.13;;;14.67;54.63
21623;BME280;10973;46.706;12.340;2023-05-20T15:11:19;87403.03;;;14.70;54.67
21623;BME280;10973;46.706;12.340;2023-05-20T15:13:46;87405.31;;;14.68;54.72
21623;BME280;10973;46.706;12.340;2023-05-20T15:16:14;87410.59;;;14.71;54.63
21623;BME280;10973;46.706;12.340;2023-05-20T15:18:41;87404.19;;;14.69;55.05
21623;BME280;10973;46.706;12.340;2023-05-20T15:21:09;87404.50;;;14.74;55.29
21623;BME280;10973;46.706;12.340;2023-05-20T15:23:36;87399.94;;;14.78;55.14
21623;BME280;10973;46.706;12.340;2023-05-20T15:26:04;87398.38;;;14.81;55.02
21623;BME280;10973;46.706;12.340;2023-05-20T15:28:33;87410.50;;;14.82;55.28
21623;BME280;10973;46.706;12.340;2023-05-20T15:31:00;87405.53;;;14.84;55.33
21623;BME280;10973;46.706;12.340;2023-05-20T15:33:28;87399.94;;;14.78;56.20
21623;BME280;10973;46.706;12.340;2023-05-20T15:35:55;87400.28;;;14.80;56.57
21623;BME280;10973;46.706;12.340;2023-05-20T15:38:23;87400.31;;;14.77;56.42
21623;BME280;10973;46.706;12.340;2023-05-20T15:40:50;87401.81;;;14.78;56.17
21623;BME280;10973;46.706;12.340;2023-05-20T15:43:18;87400.00;;;14.71;56.32
21623;BME280;10973;46.706;12.340;2023-05-20T15:45:45;87393.94;;;14.71;56.08
21623;BME280;10973;46.706;12.340;2023-05-20T15:48:14;87396.63;;;14.64;56.30
21623;BME280;10973;46.706;12.340;2023-05-20T15:50:41;87394.75;;;14.64;56.17
21623;BME280;10973;46.706;12.340;2023-05-20T15:53:09;87395.88;;;14.63;55.96
21623;BME280;10973;46.706;12.340;2023-05-20T15:55:37;87389.47;;;14.61;55.90
21623;BME280;10973;46.706;12.340;2023-05-20T15:58:04;87389.88;;;14.59;55.88
21623;BME280;10973;46.706;12.340;2023-05-20T16:00:32;87394.41;;;14.59;56.31
21623;BME280;10973;46.706;12.340;2023-05-20T16:03:00;87395.94;;;14.60;56.59
21623;BME280;10973;46.706;12.340;2023-05-20T16:05:27;87391.38;;;14.60;56.62
21623;BME280;10973;46.706;12.340;2023-05-20T16:07:54;87383.50;;;14.53;56.61
21623;BME280;10973;46.706;12.340;2023-05-20T16:10:22;87392.63;;;14.49;56.80
21623;BME280;10973;46.706;12.340;2023-05-20T16:12:52;87396.00;;;14.53;57.07
21623;BME280;10973;46.706;12.340;2023-05-20T16:15:19;87395.22;;;14.52;57.28
21623;BME280;10973;46.706;12.340;2023-05-20T16:17:47;87393.75;;;14.51;57.72
21623;BME280;10973;46.706;12.340;2023-05-20T16:20:14;87389.97;;;14.49;57.88
21623;BME280;10973;46.706;12.340;2023-05-20T16:22:41;87391.09;;;14.48;58.02
21623;BME280;10973;46.706;12.340;2023-05-20T16:25:09;87396.41;;;14.48;58.31
21623;BME280;10973;46.706;12.340;2023-05-20T16:27:39;87390.34;;;14.47;58.39
21623;BME280;10973;46.706;12.340;2023-05-20T16:30:13;87394.91;;;14.47;58.13
21623;BME280;10973;46.706;12.340;2023-05-20T16:32:40;87392.63;;;14.45;57.76
21623;BME280;10973;46.706;12.340;2023-05-20T16:35:08;87399.09;;;14.44;57.77
21623;BME280;10973;46.706;12.340;2023-05-20T16:37:35;87401.00;;;14.44;57.88
21623;BME280;10973;46.706;12.340;2023-05-20T16:40:04;87399.50;;;14.39;57.83
21623;BME280;10973;46.706;12.340;2023-05-20T16:42:32;87404.81;;;14.39;57.47
21623;BME280;10973;46.706;12.340;2023-05-20T16:44:59;87405.22;;;14.38;57.82
21623;BME280;10973;46.706;12.340;2023-05-20T16:47:26;87418.47;;;14.34;57.52
21623;BME280;10973;46.706;12.340;2023-05-20T16:49:54;87413.97;;;14.27;57.85
21623;BME280;10973;46.706;12.340;2023-05-20T16:52:21;87415.09;;;14.26;57.79
21623;BME280;10973;46.706;12.340;2023-05-20T16:54:49;87415.50;;;14.25;57.99
21623;BME280;10973;46.706;12.340;2023-05-20T16:57:16;87421.91;;;14.27;58.17
21623;BME280;10973;46.706;12.340;2023-05-20T16:59:44;87436.69;;;14.25;58.21
21623;BME280;10973;46.706;12.340;2023-05-20T17:02:12;87431.03;;;14.23;58.22
21623;BME280;10973;46.706;12.340;2023-05-20T17:04:39;87435.56;;;14.22;58.10
21623;BME280;10973;46.706;12.340;2023-05-20T17:07:07;87440.88;;;14.22;58.48
21623;BME280;10973;46.706;12.340;2023-05-20T17:09:35;87441.28;;;14.21;58.47
21623;BME280;10973;46.706;12.340;2023-05-20T17:12:03;87446.63;;;14.14;58.60
21623;BME280;10973;46.706;12.340;2023-05-20T17:14:31;87447.03;;;14.12;58.61
21623;BME280;10973;46.706;12.340;2023-05-20T17:16:59;87448.91;;;14.12;58.39
21623;BME280;10973;46.706;12.340;2023-05-20T17:19:37;87447.41;;;14.07;58.44
21623;BME280;10973;46.706;12.340;2023-05-20T17:22:05;87447.47;;;14.00;58.71
21623;BME280;10973;46.706;12.340;2023-05-20T17:24:34;87449.72;;;14.05;58.46
21623;BME280;10973;46.706;12.340;2023-05-20T17:27:02;87450.06;;;14.04;58.68
21623;BME280;10973;46.706;12.340;2023-05-20T17:29:30;87448.59;;;14.03;58.86
21623;BME280;10973;46.706;12.340;2023-05-20T17:31:57;87451.63;;;14.01;58.99
21623;BME280;10973;46.706;12.340;2023-05-20T17:34:25;87455.41;;;14.00;59.25
21623;BME280;10973;46.706;12.340;2023-05-20T17:36:52;87450.88;;;13.97;59.51
21623;BME280;10973;46.706;12.340;2023-05-20T17:39:19;87455.81;;;13.95;59.69
21623;BME280;10973;46.706;12.340;2023-05-20T17:41:47;87454.31;;;13.94;59.58
21623;BME280;10973;46.706;12.340;2023-05-20T17:44:14;87467.94;;;13.93;59.70
21623;BME280;10973;46.706;12.340;2023-05-20T17:46:42;87457.38;;;13.89;59.75
21623;BME280;10973;46.706;12.340;2023-05-20T17:49:10;87466.84;;;13.87;59.96
21623;BME280;10973;46.706;12.340;2023-05-20T17:51:37;87466.88;;;13.83;59.91
21623;BME280;10973;46.706;12.340;2023-05-20T17:54:05;87463.09;;;13.81;60.06
21623;BME280;10973;46.706;12.340;2023-05-20T17:56:32;87468.00;;;13.82;59.94
21623;BME280;10973;46.706;12.340;2023-05-20T17:59:00;87460.81;;;13.79;60.03
21623;BME280;10973;46.706;12.340;2023-05-20T18:01:28;87463.47;;;13.79;60.02
21623;BME280;10973;46.706;12.340;2023-05-20T18:03:55;87457.44;;;13.79;60.19
21623;BME280;10973;46.706;12.340;2023-05-20T18:06:23;87464.25;;;13.76;60.36
21623;BME280;10973;46.706;12.340;2023-05-20T18:08:51;87466.91;;;13.76;60.49
21623;BME280;10973;46.706;12.340;2023-05-20T18:11:18;87469.56;;;13.76;60.42
21623;BME280;10973;46.706;12.340;2023-05-20T18:13:46;87468.03;;;13.75;60.67
21623;BME280;10973;46.706;12.340;2023-05-20T18:16:13;87470.31;;;13.73;60.43
21623;BME280;10973;46.706;12.340;2023-05-20T18:18:41;87477.13;;;13.71;60.69
21623;BME280;10973;46.706;12.340;2023-05-20T18:21:10;87477.13;;;13.71;60.74
21623;BME280;10973;46.706;12.340;2023-05-20T18:23:37;87485.84;;;13.71;60.80
21623;BME280;10973;46.706;12.340;2023-05-20T18:26:05;87476.00;;;13.68;60.76
21623;BME280;10973;46.706;12.340;2023-05-20T18:28:32;87473.00;;;13.66;60.52
21623;BME280;10973;46.706;12.340;2023-05-20T18:30:59;87477.94;;;13.64;60.47
21623;BME280;10973;46.706;12.340;2023-05-20T18:33:27;87476.78;;;13.62;60.50
21623;BME280;10973;46.706;12.340;2023-05-20T18:35:54;87475.66;;;13.59;60.22
21623;BME280;10973;46.706;12.340;2023-05-20T18:38:22;87470.00;;;13.57;60.41
21623;BME280;10973;46.706;12.340;2023-05-20T18:40:50;87477.19;;;13.56;60.59
21623;BME280;10973;46.706;12.340;2023-05-20T18:43:17;87469.66;;;13.55;60.74
21623;BME280;10973;46.706;12.340;2023-05-20T18:45:44;87472.69;;;13.53;60.55
21623;BME280;10973;46.706;12.340;2023-05-20T18:48:12;87468.91;;;13.51;60.38
21623;BME280;10973;46.706;12.340;2023-05-20T18:50:51;87470.81;;;13.47;60.32
21623;BME280;10973;46.706;12.340;2023-05-20T18:53:19;87478.00;;;13.43;60.33
21623;BME280;10973;46.706;12.340;2023-05-20T18:55:47;87473.84;;;13.38;60.26
21623;BME280;10973;46.706;12.340;2023-05-20T18:58:14;87478.78;;;13.36;60.27
21623;BME280;10973;46.706;12.340;2023-05-20T19:00:42;87482.59;;;13.35;60.15
21623;BME280;10973;46.706;12.340;2023-05-20T19:03:09;87478.81;;;13.29;60.45
21623;BME280;10973;46.706;12.340;2023-05-20T19:05:37;87487.91;;;13.28;60.15
21623;BME280;10973;46.706;12.340;2023-05-20T19:08:05;87487.13;;;13.24;60.61
21623;BME280;10973;46.706;12.340;2023-05-20T19:10:32;87495.47;;;13.19;60.18
21623;BME280;10973;46.706;12.340;2023-05-20T19:12:59;87495.47;;;13.19;60.03
21623;BME280;10973;46.706;12.340;2023-05-20T19:15:27;87498.13;;;13.12;60.09
21623;BME280;10973;46.706;12.340;2023-05-20T19:17:54;87500.78;;;13.12;60.12
21623;BME280;10973;46.706;12.340;2023-05-20T19:20:23;87503.06;;;13.07;60.04
21623;BME280;10973;46.706;12.340;2023-05-20T19:22:50;87498.50;;;13.04;59.99
21623;BME280;10973;46.706;12.340;2023-05-20T19:25:19;87498.50;;;13.04;60.02
21623;BME280;10973;46.706;12.340;2023-05-20T19:27:46;87500.75;;;13.02;60.37
21623;BME280;10973;46.706;12.340;2023-05-20T19:30:14;87502.66;;;13.01;60.33
21623;BME280;10973;46.706;12.340;2023-05-20T19:32:41;87505.31;;;12.98;60.71
21623;BME280;10973;46.706;12.340;2023-05-20T19:35:09;87504.94;;;12.99;60.59
21623;BME280;10973;46.706;12.340;2023-05-20T19:37:36;87509.09;;;12.97;60.68
21623;BME280;10973;46.706;12.340;2023-05-20T19:40:04;87510.22;;;12.96;60.64
21623;BME280;10973;46.706;12.340;2023-05-20T19:42:32;87508.34;;;12.89;60.55
21623;BME280;10973;46.706;12.340;2023-05-20T19:44:59;87504.56;;;12.90;60.33
21623;BME280;10973;46.706;12.340;2023-05-20T19:47:26;87504.94;;;12.88;60.38
21623;BME280;10973;46.706;12.340;2023-05-20T19:49:54;87511.38;;;12.87;60.59
21623;BME280;10973;46.706;12.340;2023-05-20T19:52:21;87517.03;;;12.86;60.69
21623;BME280;10973;46.706;12.340;2023-05-20T19:54:49;87515.53;;;12.81;60.91
21623;BME280;10973;46.706;12.340;2023-05-20T19:57:16;87512.88;;;12.81;61.06
21623;BME280;10973;46.706;12.340;2023-05-20T19:59:44;87511.00;;;12.78;61.06
21623;BME280;10973;46.706;12.340;2023-05-20T20:02:11;87520.06;;;12.81;60.84
21623;BME280;10973;46.706;12.340;2023-05-20T20:04:38;87516.66;;;12.80;60.69
21623;BME280;10973;46.706;12.340;2023-05-20T20:07:06;87525.38;;;12.81;60.62
21623;BME280;10973;46.706;12.340;2023-05-20T20:09:34;87520.44;;;12.79;60.57
21623;BME280;10973;46.706;12.340;2023-05-20T20:12:02;87520.44;;;12.76;60.74
21623;BME280;10973;46.706;12.340;2023-05-20T20:14:30;87515.53;;;12.74;60.66
21623;BME280;10973;46.706;12.340;2023-05-20T20:16:58;87513.66;;;12.71;60.83
21623;BME280;10973;46.706;12.340;2023-05-20T20:19:26;87515.53;;;12.71;60.52
21623;BME280;10973;46.706;12.340;2023-05-20T20:21:54;87524.22;;;12.68;60.68
21623;BME280;10973;46.706;12.340;2023-05-20T20:24:22;87516.28;;;12.64;60.58
21623;BME280;10973;46.706;12.340;2023-05-20T20:26:50;87524.22;;;12.61;60.54
21623;BME280;10973;46.706;12.340;2023-05-20T20:29:21;87522.34;;;12.58;60.55
21623;BME280;10973;46.706;12.340;2023-05-20T20:31:48;87519.31;;;12.52;60.24
21623;BME280;10973;46.706;12.340;2023-05-20T20:34:16;87521.19;;;12.52;60.52
21623;BME280;10973;46.706;12.340;2023-05-20T20:36:44;87525.75;;;12.51;60.58
21623;BME280;10973;46.706;12.340;2023-05-20T20:39:13;87526.50;;;12.48;60.55
21623;BME280;10973;46.706;12.340;2023-05-20T20:41:40;87524.59;;;12.49;60.30
21623;BME280;10973;46.706;12.340;2023-05-20T20:44:08;87518.56;;;12.48;60.63
21623;BME280;10973;46.706;12.340;2023-05-20T20:46:35;87522.72;;;12.46;60.87
21623;BME280;10973;46.706;12.340;2023-05-20T20:49:02;87521.94;;;12.45;60.74
21623;BME280;10973;46.706;12.340;2023-05-20T20:51:30;87523.47;;;12.46;60.81
21623;BME280;10973;46.706;12.340;2023-05-20T20:53:57;87524.97;;;12.47;60.80
21623;BME280;10973;46.706;12.340;2023-05-20T20:56:24;87524.59;;;12.42;60.80
21623;BME280;10973;46.706;12.340;2023-05-20T20:58:52;87527.63;;;12.44;60.95
21623;BME280;10973;46.706;12.340;2023-05-20T21:01:19;87528.38;;;12.44;60.78
21623;BME280;10973;46.706;12.340;2023-05-20T21:03:47;87525.38;;;12.42;61.09
21623;BME280;10973;46.706;12.340;2023-05-20T21:06:15;87520.44;;;12.44;61.23
21623;BME280;10973;46.706;12.340;2023-05-20T21:08:42;87517.41;;;12.46;61.13
21623;BME280;10973;46.706;12.340;2023-05-20T21:11:09;87518.19;;;12.46;61.13
21623;BME280;10973;46.706;12.340;2023-05-20T21:13:37;87528.00;;;12.46;60.91
21623;BME280;10973;46.706;12.340;2023-05-20T21:16:05;87525.34;;;12.46;61.07
21623;BME280;10973;46.706;12.340;2023-05-20T21:18:33;87518.19;;;12.46;60.84
21623;BME280;10973;46.706;12.340;2023-05-20T21:21:01;87520.44;;;12.48;61.06
21623;BME280;10973;46.706;12.340;2023-05-20T21:23:28;87508.72;;;12.45;60.84
21623;BME280;10973;46.706;12.340;2023-05-20T21:25:55;87501.56;;;12.42;60.71
21623;BME280;10973;46.706;12.340;2023-05-20T21:28:23;87512.88;;;12.43;60.80
21623;BME280;10973;46.706;12.340;2023-05-20T21:30:50;87512.16;;;12.42;60.77
21623;BME280;10973;46.706;12.340;2023-05-20T21:33:18;87509.13;;;12.40;60.81
21623;BME280;10973;46.706;12.340;2023-05-20T21:35:45;87514.41;;;12.40;60.68
21623;BME280;10973;46.706;12.340;2023-05-20T21:38:13;87511.78;;;12.40;60.80
21623;BME280;10973;46.706;12.340;2023-05-20T21:40:40;87501.94;;;12.37;60.78
21623;BME280;10973;46.706;12.340;2023-05-20T21:43:08;87505.34;;;12.38;60.73
21623;BME280;10973;46.706;12.340;2023-05-20T21:45:35;87503.44;;;12.35;60.86
21623;BME280;10973;46.706;12.340;2023-05-20T21:48:03;87502.69;;;12.34;60.82
21623;BME280;10973;46.706;12.340;2023-05-20T21:50:31;87504.59;;;12.37;60.82
21623;BME280;10973;46.706;12.340;2023-05-20T21:52:58;87501.19;;;12.37;60.86
21623;BME280;10973;46.706;12.340;2023-05-20T21:55:26;87502.31;;;12.36;60.93
21623;BME280;10973;46.706;12.340;2023-05-20T21:57:53;87501.56;;;12.35;60.92
21623;BME280;10973;46.706;12.340;2023-05-20T22:00:20;87503.44;;;12.35;61.03
21623;BME280;10973;46.706;12.340;2023-05-20T22:02:48;87498.94;;;12.35;60.91
21623;BME280;10973;46.706;12.340;2023-05-20T22:05:15;87495.91;;;12.33;61.08
21623;BME280;10973;46.706;12.340;2023-05-20T22:07:43;87501.56;;;12.32;61.04
21623;BME280;10973;46.706;12.340;2023-05-20T22:10:11;87500.41;;;12.29;60.87
21623;BME280;10973;46.706;12.340;2023-05-20T22:12:42;87498.53;;;12.30;61.18
21623;BME280;10973;46.706;12.340;2023-05-20T22:15:10;87488.72;;;12.27;61.05
21623;BME280;10973;46.706;12.340;2023-05-20T22:17:38;87495.50;;;12.28;61.28
21623;BME280;10973;46.706;12.340;2023-05-20T22:20:06;87488.34;;;12.25;61.38
21623;BME280;10973;46.706;12.340;2023-05-20T22:22:34;87488.72;;;12.23;61.23
21623;BME280;10973;46.706;12.340;2023-05-20T22:25:02;87490.59;;;12.23;61.13
21623;BME280;10973;46.706;12.340;2023-05-20T22:27:30;87487.59;;;12.21;61.00
21623;BME280;10973;46.706;12.340;2023-05-20T22:29:58;87489.47;;;12.20;61.09
21623;BME280;10973;46.706;12.340;2023-05-20T22:32:25;87482.28;;;12.21;61.19
21623;BME280;10973;46.706;12.340;2023-05-20T22:34:53;87484.19;;;12.20;61.25
21623;BME280;10973;46.706;12.340;2023-05-20T22:37:20;87476.63;;;12.18;61.20
21623;BME280;10973;46.706;12.340;2023-05-20T22:39:47;87483.03;;;12.17;61.08
21623;BME280;10973;46.706;12.340;2023-05-20T22:42:15;87479.66;;;12.17;61.07
21623;BME280;10973;46.706;12.340;2023-05-20T22:44:42;87479.66;;;12.17;60.97
21623;BME280;10973;46.706;12.340;2023-05-20T22:47:09;87472.09;;;12.15;61.30
21623;BME280;10973;46.706;12.340;2023-05-20T22:49:37;87477.38;;;12.15;61.32
21623;BME280;10973;46.706;12.340;2023-05-20T22:52:05;87484.94;;;12.13;61.25
21623;BME280;10973;46.706;12.340;2023-05-20T22:54:35;87477.78;;;12.10;61.28
21623;BME280;10973;46.706;12.340;2023-05-20T22:57:03;87477.78;;;12.10;61.20
21623;BME280;10973;46.706;12.340;2023-05-20T22:59:30;87477.00;;;12.13;61.20
21623;BME280;10973;46.706;12.340;2023-05-20T23:01:58;87470.59;;;12.11;61.21
21623;BME280;10973;46.706;12.340;2023-05-20T23:04:25;87475.50;;;12.12;61.37
21623;BME280;10973;46.706;12.340;2023-05-20T23:06:53;87476.63;;;12.11;61.31
21623;BME280;10973;46.706;12.340;2023-05-20T23:09:20;87475.13;;;12.14;61.22
21623;BME280;10973;46.706;12.340;2023-05-20T23:11:47;87472.47;;;12.14;61.29
21623;BME280;10973;46.706;12.340;2023-05-20T23:14:15;87466.06;;;12.15;61.25
21623;BME280;10973;46.706;12.340;2023-05-20T23:16:42;87468.31;;;12.13;61.40
21623;BME280;10973;46.706;12.340;2023-05-20T23:19:10;87461.53;;;12.12;61.43
21623;BME280;10973;46.706;12.340;2023-05-20T23:21:37;87467.59;;;12.12;61.35
21623;BME280;10973;46.706;12.340;2023-05-20T23:24:05;87463.03;;;12.13;61.47
21623;BME280;10973;46.706;12.340;2023-05-20T23:26:32;87452.47;;;12.13;61.29
21623;BME280;10973;46.706;12.340;2023-05-20T23:29:00;87460.00;;;12.11;61.43
21623;BME280;10973;46.706;12.340;2023-05-20T23:31:27;87463.41;;;12.11;61.17
21623;BME280;10973;46.706;12.340;2023-05-20T23:33:55;87463.03;;;12.09;61.55
21623;BME280;10973;46.706;12.340;2023-05-20T23:36:24;87465.69;;;12.09;61.80
21623;BME280;10973;46.706;12.340;2023-05-20T23:38:51;87459.63;;;12.09;61.49
21623;BME280;10973;46.706;12.340;2023-05-20T23:41:19;87457.78;;;12.06;62.01
21623;BME280;10973;46.706;12.340;2023-05-20T23:43:46;87459.66;;;12.05;62.00
21623;BME280;10973;46.706;12.340;2023-05-20T23:46:14;87453.59;;;12.08;61.74
21623;BME280;10973;46.706;12.340;2023-05-20T23:48:41;87453.97;;;12.07;61.96
21623;BME280;10973;46.706;12.340;2023-05-20T23:51:09;87453.97;;;12.07;61.78
21623;BME280;10973;46.706;12.340;2023-05-20T23:53:37;87463.03;;;12.02;62.05
21623;BME280;10973;46.706;12.340;2023-05-20T23:56:04;87457.38;;;12.04;61.69
21623;BME280;10973;46.706;12.340;2023-05-20T23:58:32;87447.19;;;12.02;61.63
